sensor_id;sensor_type;location;lat;lon;timestamp;pressure;altitude;pressure_sealevel;temperature;humidity
44441;BME280;30146;52.268;20.944;2023-04-26T00:01:54;99531.77;;;8.91;67.92
44441;BME280;30146;52.268;20.944;2023-04-26T00:04:26;99528.90;;;8.89;67.94
44441;BME280;30146;52.268;20.944;2023-04-26T00:07:01;99530.47;;;8.86;67.65
44441;BME280;30146;52.268;20.944;2023-04-26T00:09:32;99535.09;;;8.85;67.86
44441;BME280;30146;52.268;20.944;2023-04-26T00:12:03;99535.30;;;8.83;67.76
44441;BME280;30146;52.268;20.944;2023-04-26T00:14:34;99540.08;;;8.82;67.77
44441;BME280;30146;52.268;20.944;2023-04-26T00:17:05;99540.98;;;8.79;67.77
44441;BME280;30146;52.268;20.944;2023-04-26T00:19:36;99542.58;;;8.74;67.54
44441;BME280;30146;52.268;20.944;2023-04-26T00:22:09;99538.79;;;8.65;67.31
44441;BME280;30146;52.268;20.944;2023-04-26T00:24:40;99547.30;;;8.54;67.12
44441;BME280;30146;52.268;20.944;2023-04-26T00:27:11;99546.43;;;8.42;66.99
44441;BME280;30146;52.268;20.944;2023-04-26T00:29:42;99547.77;;;8.30;67.26
44441;BME280;30146;52.268;20.944;2023-04-26T00:32:13;99559.61;;;8.21;67.32
44441;BME280;30146;52.268;20.944;2023-04-26T00:34:44;99568.71;;;8.14;67.58
44441;BME280;30146;52.268;20.944;2023-04-26T00:37:16;99568.62;;;8.09;67.68
44441;BME280;30146;52.268;20.944;2023-04-26T00:39:54;99571.41;;;8.03;67.81
44441;BME280;30146;52.268;20.944;2023-04-26T00:42:27;99572.14;;;7.98;67.81
44441;BME280;30146;52.268;20.944;2023-04-26T00:44:58;99574.05;;;7.94;67.89
44441;BME280;30146;52.268;20.944;2023-04-26T00:47:30;99572.39;;;7.90;68.05
44441;BME280;30146;52.268;20.944;2023-04-26T00:50:01;99580.45;;;7.86;68.15
44441;BME280;30146;52.268;20.944;2023-04-26T00:52:33;99586.95;;;7.83;67.95
44441;BME280;30146;52.268;20.944;2023-04-26T00:55:06;99584.77;;;7.80;68.13
44441;BME280;30146;52.268;20.944;2023-04-26T00:57:37;99589.17;;;7.81;68.39
44441;BME280;30146;52.268;20.944;2023-04-26T01:00:10;99593.25;;;7.82;68.58
44441;BME280;30146;52.268;20.944;2023-04-26T01:02:41;99593.90;;;7.85;68.76
44441;BME280;30146;52.268;20.944;2023-04-26T01:05:17;99597.61;;;7.88;68.76
44441;BME280;30146;52.268;20.944;2023-04-26T01:07:48;99599.64;;;7.90;68.74
44441;BME280;30146;52.268;20.944;2023-04-26T01:10:19;99594.35;;;7.91;68.67
44441;BME280;30146;52.268;20.944;2023-04-26T01:12:52;99597.57;;;7.92;68.61
44441;BME280;30146;52.268;20.944;2023-04-26T01:15:24;99597.21;;;7.94;68.79
44441;BME280;30146;52.268;20.944;2023-04-26T01:18:04;99592.55;;;7.98;68.98
44441;BME280;30146;52.268;20.944;2023-04-26T01:20:35;99597.81;;;8.02;69.13
44441;BME280;30146;52.268;20.944;2023-04-26T01:23:06;99599.27;;;8.07;69.01
44441;BME280;30146;52.268;20.944;2023-04-26T01:28:46;99603.62;;;8.14;68.79
44441;BME280;30146;52.268;20.944;2023-04-26T01:31:23;99601.05;;;8.17;68.74
44441;BME280;30146;52.268;20.944;2023-04-26T01:33:55;99601.35;;;8.19;68.77
44441;BME280;30146;52.268;20.944;2023-04-26T01:36:25;99601.33;;;8.21;68.69
44441;BME280;30146;52.268;20.944;2023-04-26T01:38:56;99604.86;;;8.24;68.59
44441;BME280;30146;52.268;20.944;2023-04-26T01:41:27;99610.11;;;8.27;68.68
44441;BME280;30146;52.268;20.944;2023-04-26T01:43:58;99609.58;;;8.28;68.74
44441;BME280;30146;52.268;20.944;2023-04-26T01:46:32;99609.05;;;8.30;68.78
44441;BME280;30146;52.268;20.944;2023-04-26T01:49:03;99606.29;;;8.33;68.57
44441;BME280;30146;52.268;20.944;2023-04-26T01:51:34;99603.70;;;8.36;68.77
44441;BME280;30146;52.268;20.944;2023-04-26T01:54:08;99602.33;;;8.37;68.84
44441;BME280;30146;52.268;20.944;2023-04-26T01:56:41;99604.19;;;8.39;68.78
44441;BME280;30146;52.268;20.944;2023-04-26T01:59:13;99601.10;;;8.39;68.69
44441;BME280;30146;52.268;20.944;2023-04-26T02:01:43;99600.41;;;8.40;68.68
44441;BME280;30146;52.268;20.944;2023-04-26T02:04:15;99599.05;;;8.41;68.68
44441;BME280;30146;52.268;20.944;2023-04-26T02:06:45;99596.50;;;8.40;68.58
44441;BME280;30146;52.268;20.944;2023-04-26T02:09:18;99596.73;;;8.35;68.40
44441;BME280;30146;52.268;20.944;2023-04-26T02:11:49;99605.43;;;8.34;68.36
44441;BME280;30146;52.268;20.944;2023-04-26T02:14:20;99604.95;;;8.32;68.41
44441;BME280;30146;52.268;20.944;2023-04-26T02:16:50;99610.24;;;8.32;68.43
44441;BME280;30146;52.268;20.944;2023-04-26T02:19:21;99611.09;;;8.31;68.62
44441;BME280;30146;52.268;20.944;2023-04-26T02:21:54;99616.17;;;8.32;68.69
44441;BME280;30146;52.268;20.944;2023-04-26T02:24:26;99614.47;;;8.33;68.60
44441;BME280;30146;52.268;20.944;2023-04-26T02:26:58;99617.87;;;8.33;68.81
44441;BME280;30146;52.268;20.944;2023-04-26T02:29:32;99620.75;;;8.35;68.76
44441;BME280;30146;52.268;20.944;2023-04-26T02:32:13;99621.60;;;8.34;68.69
44441;BME280;30146;52.268;20.944;2023-04-26T02:34:44;99619.71;;;8.35;68.81
44441;BME280;30146;52.268;20.944;2023-04-26T02:37:15;99618.20;;;8.36;68.59
44441;BME280;30146;52.268;20.944;2023-04-26T02:39:49;99614.09;;;8.36;68.64
44441;BME280;30146;52.268;20.944;2023-04-26T02:42:20;99614.08;;;8.37;68.68
44441;BME280;30146;52.268;20.944;2023-04-26T02:44:51;99614.59;;;8.37;68.65
44441;BME280;30146;52.268;20.944;2023-04-26T02:47:22;99615.45;;;8.36;68.58
44441;BME280;30146;52.268;20.944;2023-04-26T02:49:53;99620.39;;;8.36;68.63
44441;BME280;30146;52.268;20.944;2023-04-26T02:52:24;99619.52;;;8.38;68.85
44441;BME280;30146;52.268;20.944;2023-04-26T02:54:55;99614.73;;;8.38;68.57
44441;BME280;30146;52.268;20.944;2023-04-26T02:57:27;99618.14;;;8.39;68.65
44441;BME280;30146;52.268;20.944;2023-04-26T02:59:58;99617.80;;;8.39;68.61
44441;BME280;30146;52.268;20.944;2023-04-26T03:02:29;99617.98;;;8.38;68.54
44441;BME280;30146;52.268;20.944;2023-04-26T03:05:02;99619.66;;;8.39;68.67
44441;BME280;30146;52.268;20.944;2023-04-26T03:07:33;99619.50;;;8.40;68.49
44441;BME280;30146;52.268;20.944;2023-04-26T03:10:07;99620.87;;;8.39;68.38
44441;BME280;30146;52.268;20.944;2023-04-26T03:12:38;99620.36;;;8.38;68.30
44441;BME280;30146;52.268;20.944;2023-04-26T03:15:10;99619.85;;;8.38;68.46
44441;BME280;30146;52.268;20.944;2023-04-26T03:17:41;99621.06;;;8.37;68.29
44441;BME280;30146;52.268;20.944;2023-04-26T03:20:13;99619.90;;;8.35;68.05
44441;BME280;30146;52.268;20.944;2023-04-26T03:22:47;99620.45;;;8.32;68.05
44441;BME280;30146;52.268;20.944;2023-04-26T03:25:18;99618.42;;;8.28;67.84
44441;BME280;30146;52.268;20.944;2023-04-26T03:27:49;99619.84;;;8.26;67.72
44441;BME280;30146;52.268;20.944;2023-04-26T03:30:20;99620.71;;;8.22;67.63
44441;BME280;30146;52.268;20.944;2023-04-26T03:32:51;99623.14;;;8.19;67.53
44441;BME280;30146;52.268;20.944;2023-04-26T03:35:28;99628.46;;;8.16;67.46
44441;BME280;30146;52.268;20.944;2023-04-26T03:37:59;99630.55;;;8.12;67.24
44441;BME280;30146;52.268;20.944;2023-04-26T03:40:31;99633.86;;;8.05;66.96
44441;BME280;30146;52.268;20.944;2023-04-26T03:43:01;99637.31;;;7.99;67.00
44441;BME280;30146;52.268;20.944;2023-04-26T03:45:32;99637.37;;;7.94;67.02
44441;BME280;30146;52.268;20.944;2023-04-26T03:48:04;99637.58;;;7.90;66.93
44441;BME280;30146;52.268;20.944;2023-04-26T03:50:35;99643.08;;;7.84;66.88
44441;BME280;30146;52.268;20.944;2023-04-26T03:53:06;99644.66;;;7.79;66.71
44441;BME280;30146;52.268;20.944;2023-04-26T03:55:41;99645.06;;;7.72;66.49
44441;BME280;30146;52.268;20.944;2023-04-26T03:58:12;99646.48;;;7.66;66.58
44441;BME280;30146;52.268;20.944;2023-04-26T04:00:43;99649.23;;;7.62;66.69
44441;BME280;30146;52.268;20.944;2023-04-26T04:03:15;99647.55;;;7.59;66.64
44441;BME280;30146;52.268;20.944;2023-04-26T04:05:46;99651.64;;;7.59;66.67
44441;BME280;30146;52.268;20.944;2023-04-26T04:08:20;99655.21;;;7.59;66.66
44441;BME280;30146;52.268;20.944;2023-04-26T04:10:51;99657.07;;;7.61;66.74
44441;BME280;30146;52.268;20.944;2023-04-26T04:13:22;99657.36;;;7.67;66.83
44441;BME280;30146;52.268;20.944;2023-04-26T04:15:53;99656.55;;;7.82;66.82
44441;BME280;30146;52.268;20.944;2023-04-26T04:18:24;99658.73;;;8.02;66.89
44441;BME280;30146;52.268;20.944;2023-04-26T04:20:56;99655.94;;;8.41;67.20
44441;BME280;30146;52.268;20.944;2023-04-26T04:23:27;99652.27;;;9.02;67.58
44441;BME280;30146;52.268;20.944;2023-04-26T04:26:10;99652.11;;;9.68;67.58
44441;BME280;30146;52.268;20.944;2023-04-26T04:28:45;99651.54;;;10.28;66.71
44441;BME280;30146;52.268;20.944;2023-04-26T04:31:19;99647.30;;;10.94;66.18
44441;BME280;30146;52.268;20.944;2023-04-26T04:33:50;99650.52;;;11.61;65.63
44441;BME280;30146;52.268;20.944;2023-04-26T04:36:26;99650.22;;;12.33;65.10
44441;BME280;30146;52.268;20.944;2023-04-26T04:39:00;99647.16;;;13.03;64.14
44441;BME280;30146;52.268;20.944;2023-04-26T04:41:34;99650.02;;;13.65;63.20
44441;BME280;30146;52.268;20.944;2023-04-26T04:44:05;99654.77;;;14.27;62.51
44441;BME280;30146;52.268;20.944;2023-04-26T04:46:36;99658.17;;;14.80;61.44
44441;BME280;30146;52.268;20.944;2023-04-26T04:49:07;99659.75;;;15.29;60.49
44441;BME280;30146;52.268;20.944;2023-04-26T04:51:40;99658.95;;;15.75;59.67
44441;BME280;30146;52.268;20.944;2023-04-26T04:54:14;99660.58;;;16.26;59.00
44441;BME280;30146;52.268;20.944;2023-04-26T04:56:47;99658.55;;;16.67;57.97
44441;BME280;30146;52.268;20.944;2023-04-26T04:59:19;99661.21;;;17.04;57.34
44441;BME280;30146;52.268;20.944;2023-04-26T05:01:50;99666.69;;;17.38;56.57
44441;BME280;30146;52.268;20.944;2023-04-26T05:04:24;99672.09;;;17.76;55.87
44441;BME280;30146;52.268;20.944;2023-04-26T05:06:56;99674.81;;;18.11;55.05
44441;BME280;30146;52.268;20.944;2023-04-26T05:09:26;99679.48;;;18.28;53.82
44441;BME280;30146;52.268;20.944;2023-04-26T05:11:58;99679.95;;;18.25;52.74
44441;BME280;30146;52.268;20.944;2023-04-26T05:14:30;99682.96;;;18.35;52.54
44441;BME280;30146;52.268;20.944;2023-04-26T05:17:01;99682.40;;;18.52;52.03
44441;BME280;30146;52.268;20.944;2023-04-26T05:19:32;99685.42;;;18.44;51.04
44441;BME280;30146;52.268;20.944;2023-04-26T05:22:06;99690.27;;;18.27;50.14
44441;BME280;30146;52.268;20.944;2023-04-26T05:24:37;99690.67;;;17.77;49.14
44441;BME280;30146;52.268;20.944;2023-04-26T05:27:08;99692.31;;;17.25;48.58
44441;BME280;30146;52.268;20.944;2023-04-26T05:29:52;99699.22;;;16.88;48.77
44441;BME280;30146;52.268;20.944;2023-04-26T05:32:35;99697.80;;;16.77;49.24
44441;BME280;30146;52.268;20.944;2023-04-26T05:35:17;99702.20;;;17.10;50.56
44441;BME280;30146;52.268;20.944;2023-04-26T05:37:51;99704.60;;;17.79;51.48
44441;BME280;30146;52.268;20.944;2023-04-26T05:40:29;99707.02;;;18.61;51.72
44441;BME280;30146;52.268;20.944;2023-04-26T05:43:00;99708.94;;;19.38;51.42
44441;BME280;30146;52.268;20.944;2023-04-26T05:45:32;99709.85;;;20.04;50.42
44441;BME280;30146;52.268;20.944;2023-04-26T05:48:03;99703.90;;;20.69;50.15
44441;BME280;30146;52.268;20.944;2023-04-26T05:50:36;99699.33;;;21.37;49.48
44441;BME280;30146;52.268;20.944;2023-04-26T05:53:08;99700.52;;;21.90;47.92
44441;BME280;30146;52.268;20.944;2023-04-26T05:55:39;99701.50;;;22.28;46.55
44441;BME280;30146;52.268;20.944;2023-04-26T05:58:10;99703.57;;;22.71;46.27
44441;BME280;30146;52.268;20.944;2023-04-26T06:00:42;99701.20;;;23.17;45.67
44441;BME280;30146;52.268;20.944;2023-04-26T06:03:13;99701.71;;;23.68;45.13
44441;BME280;30146;52.268;20.944;2023-04-26T06:09:18;99710.81;;;24.71;43.39
44441;BME280;30146;52.268;20.944;2023-04-26T06:16:15;99701.70;;;25.78;41.17
44441;BME280;30146;52.268;20.944;2023-04-26T06:18:46;99703.51;;;26.11;40.28
44441;BME280;30146;52.268;20.944;2023-04-26T06:21:17;99704.13;;;26.33;39.21
44441;BME280;30146;52.268;20.944;2023-04-26T06:23:48;99700.39;;;26.62;39.07
44441;BME280;30146;52.268;20.944;2023-04-26T06:26:20;99704.02;;;26.87;37.97
44441;BME280;30146;52.268;20.944;2023-04-26T06:28:51;99703.90;;;27.06;37.66
44441;BME280;30146;52.268;20.944;2023-04-26T06:31:21;99701.80;;;27.22;36.78
44441;BME280;30146;52.268;20.944;2023-04-26T06:33:52;99702.27;;;27.27;36.01
44441;BME280;30146;52.268;20.944;2023-04-26T06:36:27;99704.34;;;27.25;35.77
44441;BME280;30146;52.268;20.944;2023-04-26T06:38:59;99701.72;;;27.31;35.37
44441;BME280;30146;52.268;20.944;2023-04-26T06:41:30;99708.00;;;27.47;35.51
44441;BME280;30146;52.268;20.944;2023-04-26T06:44:01;99708.95;;;27.70;34.99
44441;BME280;30146;52.268;20.944;2023-04-26T06:46:33;99709.45;;;27.89;34.48
44441;BME280;30146;52.268;20.944;2023-04-26T06:49:04;99709.02;;;28.01;34.10
44441;BME280;30146;52.268;20.944;2023-04-26T06:51:34;99710.41;;;28.28;33.86
44441;BME280;30146;52.268;20.944;2023-04-26T06:54:05;99713.96;;;28.30;32.54
44441;BME280;30146;52.268;20.944;2023-04-26T06:56:40;99704.68;;;28.07;32.10
44441;BME280;30146;52.268;20.944;2023-04-26T06:59:11;99707.98;;;27.90;31.85
44441;BME280;30146;52.268;20.944;2023-04-26T07:01:42;99711.59;;;27.81;31.72
44441;BME280;30146;52.268;20.944;2023-04-26T07:04:13;99711.63;;;27.77;31.85
44441;BME280;30146;52.268;20.944;2023-04-26T07:06:47;99711.42;;;27.83;31.68
44441;BME280;30146;52.268;20.944;2023-04-26T07:09:20;99714.08;;;28.00;31.66
44441;BME280;30146;52.268;20.944;2023-04-26T07:11:50;99717.55;;;28.16;31.43
44441;BME280;30146;52.268;20.944;2023-04-26T07:14:21;99721.20;;;28.50;31.37
44441;BME280;30146;52.268;20.944;2023-04-26T07:16:52;99722.14;;;28.85;30.82
44441;BME280;30146;52.268;20.944;2023-04-26T07:19:23;99728.90;;;29.08;30.54
44441;BME280;30146;52.268;20.944;2023-04-26T07:21:53;99719.27;;;29.27;30.06
44441;BME280;30146;52.268;20.944;2023-04-26T07:24:24;99725.90;;;29.22;29.64
44441;BME280;30146;52.268;20.944;2023-04-26T07:26:58;99727.10;;;29.06;29.64
44441;BME280;30146;52.268;20.944;2023-04-26T07:29:29;99725.43;;;29.06;29.96
44441;BME280;30146;52.268;20.944;2023-04-26T07:32:00;99726.04;;;28.97;30.28
44441;BME280;30146;52.268;20.944;2023-04-26T07:34:32;99728.57;;;28.82;30.28
44441;BME280;30146;52.268;20.944;2023-04-26T07:37:03;99727.84;;;28.62;30.56
44441;BME280;30146;52.268;20.944;2023-04-26T07:39:34;99728.28;;;28.06;29.57
44441;BME280;30146;52.268;20.944;2023-04-26T07:42:08;99733.89;;;27.26;28.99
44441;BME280;30146;52.268;20.944;2023-04-26T07:44:39;99738.29;;;26.33;28.66
44441;BME280;30146;52.268;20.944;2023-04-26T07:47:13;99736.09;;;25.64;29.12
44441;BME280;30146;52.268;20.944;2023-04-26T07:49:45;99742.55;;;25.23;30.16
44441;BME280;30146;52.268;20.944;2023-04-26T07:52:19;99744.00;;;25.02;30.39
44441;BME280;30146;52.268;20.944;2023-04-26T07:54:50;99746.16;;;24.68;30.38
44441;BME280;30146;52.268;20.944;2023-04-26T07:57:21;99747.77;;;24.38;30.18
44441;BME280;30146;52.268;20.944;2023-04-26T07:59:54;99747.20;;;23.80;29.81
44441;BME280;30146;52.268;20.944;2023-04-26T08:02:30;99746.03;;;23.31;29.86
44441;BME280;30146;52.268;20.944;2023-04-26T08:05:13;99746.70;;;22.77;30.02
44441;BME280;30146;52.268;20.944;2023-04-26T08:07:53;99746.99;;;22.22;30.21
44441;BME280;30146;52.268;20.944;2023-04-26T08:10:24;99753.25;;;21.63;30.31
44441;BME280;30146;52.268;20.944;2023-04-26T08:12:55;99764.20;;;21.02;30.37
44441;BME280;30146;52.268;20.944;2023-04-26T08:15:26;99760.61;;;20.41;30.68
44441;BME280;30146;52.268;20.944;2023-04-26T08:17:57;99761.52;;;19.83;30.90
44441;BME280;30146;52.268;20.944;2023-04-26T08:20:31;99762.70;;;19.31;31.08
44441;BME280;30146;52.268;20.944;2023-04-26T08:23:08;99762.88;;;19.08;32.10
44441;BME280;30146;52.268;20.944;2023-04-26T08:25:39;99758.84;;;19.09;32.86
44441;BME280;30146;52.268;20.944;2023-04-26T08:28:10;99756.27;;;19.18;32.99
44441;BME280;30146;52.268;20.944;2023-04-26T08:30:43;99754.23;;;19.27;33.19
44441;BME280;30146;52.268;20.944;2023-04-26T08:33:13;99754.52;;;19.22;33.20
44441;BME280;30146;52.268;20.944;2023-04-26T08:35:48;99760.87;;;19.04;32.78
44441;BME280;30146;52.268;20.944;2023-04-26T08:38:18;99759.23;;;18.72;32.42
44441;BME280;30146;52.268;20.944;2023-04-26T08:40:51;99761.63;;;18.32;32.37
44441;BME280;30146;52.268;20.944;2023-04-26T08:43:25;99760.07;;;17.87;32.59
44441;BME280;30146;52.268;20.944;2023-04-26T08:45:59;99767.77;;;17.41;32.72
44441;BME280;30146;52.268;20.944;2023-04-26T08:48:34;99772.77;;;16.96;32.97
44441;BME280;30146;52.268;20.944;2023-04-26T08:51:04;99773.52;;;16.66;33.77
44441;BME280;30146;52.268;20.944;2023-04-26T08:53:37;99769.34;;;16.67;34.35
44441;BME280;30146;52.268;20.944;2023-04-26T08:56:11;99767.66;;;16.78;35.00
44441;BME280;30146;52.268;20.944;2023-04-26T08:58:44;99770.52;;;16.80;34.83
44441;BME280;30146;52.268;20.944;2023-04-26T09:01:16;99772.08;;;16.68;34.54
44441;BME280;30146;52.268;20.944;2023-04-26T09:03:48;99775.25;;;16.54;34.55
44441;BME280;30146;52.268;20.944;2023-04-26T09:06:28;99776.86;;;16.37;34.77
44441;BME280;30146;52.268;20.944;2023-04-26T09:09:02;99779.52;;;16.19;34.77
44441;BME280;30146;52.268;20.944;2023-04-26T09:11:53;99785.48;;;16.04;34.84
44441;BME280;30146;52.268;20.944;2023-04-26T09:14:30;99789.55;;;15.92;34.99
44441;BME280;30146;52.268;20.944;2023-04-26T09:17:01;99792.45;;;15.80;34.99
44441;BME280;30146;52.268;20.944;2023-04-26T09:19:39;99792.23;;;15.67;34.91
44441;BME280;30146;52.268;20.944;2023-04-26T09:22:28;99797.85;;;15.47;34.92
44441;BME280;30146;52.268;20.944;2023-04-26T09:25:01;99802.08;;;15.22;35.04
44441;BME280;30146;52.268;20.944;2023-04-26T09:27:35;99806.53;;;14.94;34.70
44441;BME280;30146;52.268;20.944;2023-04-26T09:30:09;99808.38;;;14.66;34.90
44441;BME280;30146;52.268;20.944;2023-04-26T09:32:52;99808.36;;;14.45;35.12
44441;BME280;30146;52.268;20.944;2023-04-26T09:35:26;99805.11;;;14.29;35.48
44441;BME280;30146;52.268;20.944;2023-04-26T09:37:58;99810.77;;;14.14;35.39
44441;BME280;30146;52.268;20.944;2023-04-26T09:40:41;99812.23;;;13.95;35.42
44441;BME280;30146;52.268;20.944;2023-04-26T09:43:17;99813.33;;;13.82;35.72
44441;BME280;30146;52.268;20.944;2023-04-26T09:45:50;99811.73;;;13.73;36.02
44441;BME280;30146;52.268;20.944;2023-04-26T09:48:22;99818.62;;;13.61;35.98
44441;BME280;30146;52.268;20.944;2023-04-26T09:50:58;99820.52;;;13.49;36.14
44441;BME280;30146;52.268;20.944;2023-04-26T09:53:39;99825.23;;;13.40;36.39
44441;BME280;30146;52.268;20.944;2023-04-26T09:56:14;99829.06;;;13.34;36.74
44441;BME280;30146;52.268;20.944;2023-04-26T09:58:58;99827.62;;;13.28;36.89
44441;BME280;30146;52.268;20.944;2023-04-26T10:01:31;99823.63;;;13.24;36.88
44441;BME280;30146;52.268;20.944;2023-04-26T10:04:04;99826.16;;;13.19;37.08
44441;BME280;30146;52.268;20.944;2023-04-26T10:06:36;99823.56;;;13.14;37.01
44441;BME280;30146;52.268;20.944;2023-04-26T10:09:07;99824.84;;;13.12;37.24
44441;BME280;30146;52.268;20.944;2023-04-26T10:11:38;99824.20;;;13.10;37.27
44441;BME280;30146;52.268;20.944;2023-04-26T10:14:14;99826.25;;;13.04;36.98
44441;BME280;30146;52.268;20.944;2023-04-26T10:16:45;99829.56;;;12.96;37.04
44441;BME280;30146;52.268;20.944;2023-04-26T10:19:17;99830.19;;;12.85;37.08
44441;BME280;30146;52.268;20.944;2023-04-26T10:21:49;99832.27;;;12.78;37.27
44441;BME280;30146;52.268;20.944;2023-04-26T10:24:26;99827.71;;;12.75;37.54
44441;BME280;30146;52.268;20.944;2023-04-26T10:26:57;99826.25;;;12.79;37.68
44441;BME280;30146;52.268;20.944;2023-04-26T10:36:08;99829.60;;;12.95;37.29
44441;BME280;30146;52.268;20.944;2023-04-26T10:38:41;99833.74;;;12.94;37.34
44441;BME280;30146;52.268;20.944;2023-04-26T10:41:37;99836.73;;;12.91;37.36
44441;BME280;30146;52.268;20.944;2023-04-26T10:44:39;99841.40;;;12.83;36.93
44441;BME280;30146;52.268;20.944;2023-04-26T10:47:27;99847.50;;;12.73;36.76
44441;BME280;30146;52.268;20.944;2023-04-26T10:50:09;99845.13;;;12.65;36.89
44441;BME280;30146;52.268;20.944;2023-04-26T10:53:06;99844.71;;;12.67;37.37
44441;BME280;30146;52.268;20.944;2023-04-26T10:55:43;99838.30;;;12.77;37.88
44441;BME280;30146;52.268;20.944;2023-04-26T10:58:39;99842.40;;;12.91;37.74
44441;BME280;30146;52.268;20.944;2023-04-26T11:01:14;99839.50;;;13.02;37.67
44441;BME280;30146;52.268;20.944;2023-04-26T11:04:05;99847.08;;;13.14;37.56
44441;BME280;30146;52.268;20.944;2023-04-26T11:06:50;99847.07;;;13.27;37.35
44441;BME280;30146;52.268;20.944;2023-04-26T11:09:37;99845.24;;;13.31;36.76
44441;BME280;30146;52.268;20.944;2023-04-26T11:12:12;99850.58;;;13.30;36.52
44441;BME280;30146;52.268;20.944;2023-04-26T11:14:44;99853.64;;;13.25;36.68
44441;BME280;30146;52.268;20.944;2023-04-26T11:17:15;99853.98;;;13.24;37.12
44441;BME280;30146;52.268;20.944;2023-04-26T11:19:49;99863.58;;;13.25;37.25
44441;BME280;30146;52.268;20.944;2023-04-26T11:22:22;99859.45;;;13.20;37.08
44441;BME280;30146;52.268;20.944;2023-04-26T11:24:53;99864.96;;;13.12;37.21
44441;BME280;30146;52.268;20.944;2023-04-26T11:27:27;99868.60;;;13.05;37.07
44441;BME280;30146;52.268;20.944;2023-04-26T11:30:03;99864.11;;;12.94;36.78
44441;BME280;30146;52.268;20.944;2023-04-26T11:32:34;99868.07;;;12.86;36.87
44441;BME280;30146;52.268;20.944;2023-04-26T11:35:07;99873.50;;;12.88;36.94
44441;BME280;30146;52.268;20.944;2023-04-26T11:37:39;99866.89;;;12.99;36.90
44441;BME280;30146;52.268;20.944;2023-04-26T11:40:16;99866.67;;;13.13;37.03
44441;BME280;30146;52.268;20.944;2023-04-26T11:42:47;99861.50;;;13.26;36.81
44441;BME280;30146;52.268;20.944;2023-04-26T11:45:18;99865.27;;;13.33;36.57
44441;BME280;30146;52.268;20.944;2023-04-26T11:47:50;99864.27;;;13.39;36.44
44441;BME280;30146;52.268;20.944;2023-04-26T11:50:27;99867.16;;;13.39;36.56
44441;BME280;30146;52.268;20.944;2023-04-26T11:53:00;99865.46;;;13.39;36.65
44441;BME280;30146;52.268;20.944;2023-04-26T11:55:35;99867.23;;;13.37;36.45
44441;BME280;30146;52.268;20.944;2023-04-26T11:58:13;99871.85;;;13.32;36.04
44441;BME280;30146;52.268;20.944;2023-04-26T12:00:59;99875.20;;;13.21;35.97
44441;BME280;30146;52.268;20.944;2023-04-26T12:03:32;99873.28;;;13.10;35.89
44441;BME280;30146;52.268;20.944;2023-04-26T12:06:06;99880.42;;;12.99;36.07
44441;BME280;30146;52.268;20.944;2023-04-26T12:08:37;99883.20;;;12.92;36.38
44441;BME280;30146;52.268;20.944;2023-04-26T12:11:16;99883.69;;;12.86;36.53
44441;BME280;30146;52.268;20.944;2023-04-26T12:13:48;99888.39;;;12.83;36.63
44441;BME280;30146;52.268;20.944;2023-04-26T12:16:20;99887.84;;;12.85;36.59
44441;BME280;30146;52.268;20.944;2023-04-26T12:19:00;99888.28;;;12.87;36.80
44441;BME280;30146;52.268;20.944;2023-04-26T12:21:42;99889.70;;;12.92;37.01
44441;BME280;30146;52.268;20.944;2023-04-26T12:24:24;99891.48;;;12.97;36.64
44441;BME280;30146;52.268;20.944;2023-04-26T12:26:55;99891.89;;;12.94;36.27
44441;BME280;30146;52.268;20.944;2023-04-26T12:29:30;99894.16;;;12.86;36.14
44441;BME280;30146;52.268;20.944;2023-04-26T12:32:01;99897.18;;;12.75;36.13
44441;BME280;30146;52.268;20.944;2023-04-26T12:34:33;99900.04;;;12.64;36.08
44441;BME280;30146;52.268;20.944;2023-04-26T12:37:03;99905.45;;;12.53;35.99
44441;BME280;30146;52.268;20.944;2023-04-26T12:39:35;99904.30;;;12.43;36.08
44441;BME280;30146;52.268;20.944;2023-04-26T12:42:06;99905.54;;;12.35;36.11
44441;BME280;30146;52.268;20.944;2023-04-26T12:44:37;99905.02;;;12.27;36.08
44441;BME280;30146;52.268;20.944;2023-04-26T12:47:08;99907.70;;;12.23;36.43
44441;BME280;30146;52.268;20.944;2023-04-26T12:49:38;99904.61;;;12.23;36.58
44441;BME280;30146;52.268;20.944;2023-04-26T12:52:11;99909.84;;;12.26;36.80
44441;BME280;30146;52.268;20.944;2023-04-26T12:54:42;99911.12;;;12.30;36.65
44441;BME280;30146;52.268;20.944;2023-04-26T12:57:13;99914.14;;;12.33;36.65
44441;BME280;30146;52.268;20.944;2023-04-26T12:59:44;99917.56;;;12.34;36.76
44441;BME280;30146;52.268;20.944;2023-04-26T13:02:15;99920.29;;;12.35;36.88
44441;BME280;30146;52.268;20.944;2023-04-26T13:04:46;99922.55;;;12.33;36.81
44441;BME280;30146;52.268;20.944;2023-04-26T13:07:17;99927.41;;;12.30;36.79
44441;BME280;30146;52.268;20.944;2023-04-26T13:09:51;99929.38;;;12.27;36.90
44441;BME280;30146;52.268;20.944;2023-04-26T13:12:21;99932.73;;;12.22;36.90
44441;BME280;30146;52.268;20.944;2023-04-26T13:14:53;99936.02;;;12.20;37.09
44441;BME280;30146;52.268;20.944;2023-04-26T13:17:25;99942.29;;;12.17;36.98
44441;BME280;30146;52.268;20.944;2023-04-26T13:19:56;99939.63;;;12.13;36.99
44441;BME280;30146;52.268;20.944;2023-04-26T13:22:26;99938.09;;;12.12;36.95
44441;BME280;30146;52.268;20.944;2023-04-26T13:24:59;99937.04;;;12.14;36.84
44441;BME280;30146;52.268;20.944;2023-04-26T13:27:30;99931.14;;;12.17;37.02
44441;BME280;30146;52.268;20.944;2023-04-26T13:30:01;99932.41;;;12.21;37.00
44441;BME280;30146;52.268;20.944;2023-04-26T13:32:32;99941.67;;;12.21;36.80
44441;BME280;30146;52.268;20.944;2023-04-26T13:35:03;99938.17;;;12.17;36.61
44441;BME280;30146;52.268;20.944;2023-04-26T13:37:34;99941.71;;;12.11;36.38
44441;BME280;30146;52.268;20.944;2023-04-26T13:40:11;99947.41;;;12.02;36.13
44441;BME280;30146;52.268;20.944;2023-04-26T13:42:42;99954.23;;;11.96;36.42